sensor_id;sensor_type;location;lat;lon;timestamp;pressure;altitude;pressure_sealevel;temperature;humidity
78229;BME280;74448;49.082;9.152;2023-12-20T00:00:27;99423.66;;;10.11;60.16
78229;BME280;74448;49.082;9.152;2023-12-20T00:02:54;99403.41;;;10.12;60.56
78229;BME280;74448;49.082;9.152;2023-12-20T00:05:20;99399.91;;;10.11;60.34
78229;BME280;74448;49.082;9.152;2023-12-20T00:07:47;99405.16;;;10.00;60.67
78229;BME280;74448;49.082;9.152;2023-12-20T00:10:14;99400.25;;;9.83;61.39
78229;BME280;74448;49.082;9.152;2023-12-20T00:12:40;99400.09;;;9.60;62.08
78229;BME280;74448;49.082;9.152;2023-12-20T00:15:07;99381.81;;;9.33;62.67
78229;BME280;74448;49.082;9.152;2023-12-20T00:17:34;99389.09;;;9.17;63.48
78229;BME280;74448;49.082;9.152;2023-12-20T00:20:01;99368.75;;;8.93;63.99
78229;BME280;74448;49.082;9.152;2023-12-20T00:22:28;99372.03;;;8.84;64.35
78229;BME280;74448;49.082;9.152;2023-12-20T00:24:54;99375.50;;;8.72;64.46
78229;BME280;74448;49.082;9.152;2023-12-20T00:27:21;99368.53;;;8.58;64.78
78229;BME280;74448;49.082;9.152;2023-12-20T00:29:47;99373.16;;;8.55;64.73
78229;BME280;74448;49.082;9.152;2023-12-20T00:32:16;99379.78;;;8.47;65.03
78229;BME280;74448;49.082;9.152;2023-12-20T00:34:43;99379.56;;;8.38;65.18
78229;BME280;74448;49.082;9.152;2023-12-20T00:37:09;99374.88;;;8.29;65.27
78229;BME280;74448;49.082;9.152;2023-12-20T00:39:36;99377.06;;;8.22;65.69
78229;BME280;74448;49.082;9.152;2023-12-20T00:42:03;99369.03;;;8.11;65.40
78229;BME280;74448;49.082;9.152;2023-12-20T00:44:29;99354.25;;;7.95;65.65
78229;BME280;74448;49.082;9.152;2023-12-20T00:46:57;99367.00;;;8.02;66.18
78229;BME280;74448;49.082;9.152;2023-12-20T00:49:23;99356.53;;;7.87;65.82
78229;BME280;74448;49.082;9.152;2023-12-20T00:51:51;99364.13;;;7.92;65.85
78229;BME280;74448;49.082;9.152;2023-12-20T00:54:19;99367.25;;;7.84;65.82
78229;BME280;74448;49.082;9.152;2023-12-20T00:56:45;99365.56;;;7.83;65.95
78229;BME280;74448;49.082;9.152;2023-12-20T00:59:12;99365.88;;;7.79;66.15
78229;BME280;74448;49.082;9.152;2023-12-20T01:01:39;99350.94;;;7.65;65.82
78229;BME280;74448;49.082;9.152;2023-12-20T01:04:05;99363.63;;;7.72;65.88
78229;BME280;74448;49.082;9.152;2023-12-20T01:06:32;99362.25;;;7.67;66.36
78229;BME280;74448;49.082;9.152;2023-12-20T01:08:59;99355.59;;;7.61;66.19
78229;BME280;74448;49.082;9.152;2023-12-20T01:11:25;99370.53;;;7.61;66.18
78229;BME280;74448;49.082;9.152;2023-12-20T01:13:52;99373.16;;;7.61;65.63
78229;BME280;74448;49.082;9.152;2023-12-20T01:16:18;99371.84;;;7.54;66.46
78229;BME280;74448;49.082;9.152;2023-12-20T01:18:45;99370.91;;;7.55;65.80
78229;BME280;74448;49.082;9.152;2023-12-20T01:21:12;99368.56;;;7.50;66.31
78229;BME280;74448;49.082;9.152;2023-12-20T01:23:38;99370.53;;;7.46;66.03
78229;BME280;74448;49.082;9.152;2023-12-20T01:26:05;99354.59;;;7.35;66.41
78229;BME280;74448;49.082;9.152;2023-12-20T01:28:32;99368.22;;;7.42;66.11
78229;BME280;74448;49.082;9.152;2023-12-20T01:30:58;99359.84;;;7.35;66.40
78229;BME280;74448;49.082;9.152;2023-12-20T01:33:25;99371.88;;;7.39;66.32
78229;BME280;74448;49.082;9.152;2023-12-20T01:35:51;99359.31;;;7.30;65.57
78229;BME280;74448;49.082;9.152;2023-12-20T01:38:18;99350.09;;;7.23;66.28
78229;BME280;74448;49.082;9.152;2023-12-20T01:40:45;99373.09;;;7.34;65.81
78229;BME280;74448;49.082;9.152;2023-12-20T01:43:12;99363.63;;;7.31;66.04
78229;BME280;74448;49.082;9.152;2023-12-20T01:45:39;99347.75;;;7.18;66.06
78229;BME280;74448;49.082;9.152;2023-12-20T01:48:06;99372.63;;;7.27;65.86
78229;BME280;74448;49.082;9.152;2023-12-20T01:50:36;99364.00;;;7.25;66.42
78229;BME280;74448;49.082;9.152;2023-12-20T01:53:04;99360.63;;;7.23;66.37
78229;BME280;74448;49.082;9.152;2023-12-20T01:55:34;99345.41;;;7.14;66.02
78229;BME280;74448;49.082;9.152;2023-12-20T01:58:03;99348.81;;;7.16;65.89
78229;BME280;74448;49.082;9.152;2023-12-20T02:00:30;99348.81;;;7.16;65.92
78229;BME280;74448;49.082;9.152;2023-12-20T02:03:00;99354.06;;;7.16;65.98
78229;BME280;74448;49.082;9.152;2023-12-20T02:05:27;99347.22;;;7.13;65.58
78229;BME280;74448;49.082;9.152;2023-12-20T02:07:54;99350.97;;;7.09;66.39
78229;BME280;74448;49.082;9.152;2023-12-20T02:10:21;99349.94;;;7.12;65.46
78229;BME280;74448;49.082;9.152;2023-12-20T02:12:48;99343.25;;;7.06;66.25
78229;BME280;74448;49.082;9.152;2023-12-20T02:15:14;99355.50;;;7.07;65.17
78229;BME280;74448;49.082;9.152;2023-12-20T02:17:41;99354.66;;;7.07;65.85
78229;BME280;74448;49.082;9.152;2023-12-20T02:20:08;99357.34;;;7.05;65.61
78229;BME280;74448;49.082;9.152;2023-12-20T02:22:35;99345.44;;;6.99;65.29
78229;BME280;74448;49.082;9.152;2023-12-20T02:25:02;99356.69;;;7.02;65.67
78229;BME280;74448;49.082;9.152;2023-12-20T02:27:29;99360.09;;;7.04;65.80
78229;BME280;74448;49.082;9.152;2023-12-20T02:29:56;99355.00;;;7.01;66.28
78229;BME280;74448;49.082;9.152;2023-12-20T02:32:24;99354.44;;;6.95;65.67
78229;BME280;74448;49.082;9.152;2023-12-20T02:34:53;99352.50;;;6.99;65.73
78229;BME280;74448;49.082;9.152;2023-12-20T02:37:20;99348.25;;;6.96;65.75
78229;BME280;74448;49.082;9.152;2023-12-20T02:39:47;99342.25;;;6.94;65.72
78229;BME280;74448;49.082;9.152;2023-12-20T02:42:14;99340.66;;;6.92;66.21
78229;BME280;74448;49.082;9.152;2023-12-20T02:44:40;99329.03;;;6.82;66.16
78229;BME280;74448;49.082;9.152;2023-12-20T02:47:07;99339.81;;;6.91;65.43
78229;BME280;74448;49.082;9.152;2023-12-20T02:49:33;99337.53;;;6.85;66.03
78229;BME280;74448;49.082;9.152;2023-12-20T02:52:00;99341.69;;;6.89;65.29
78229;BME280;74448;49.082;9.152;2023-12-20T02:54:27;99337.75;;;6.82;65.17
78229;BME280;74448;49.082;9.152;2023-12-20T02:56:53;99347.13;;;6.86;65.97
78229;BME280;74448;49.082;9.152;2023-12-20T02:59:20;99352.41;;;6.86;66.17
78229;BME280;74448;49.082;9.152;2023-12-20T03:01:46;99347.44;;;6.82;65.63
78229;BME280;74448;49.082;9.152;2023-12-20T03:04:13;99346.47;;;6.83;65.43
78229;BME280;74448;49.082;9.152;2023-12-20T03:06:40;99347.31;;;6.83;65.59
78229;BME280;74448;49.082;9.152;2023-12-20T03:09:06;99348.34;;;6.81;66.01
78229;BME280;74448;49.082;9.152;2023-12-20T03:11:33;99331.47;;;6.70;65.08
78229;BME280;74448;49.082;9.152;2023-12-20T03:14:00;99327.03;;;6.71;65.41
78229;BME280;74448;49.082;9.152;2023-12-20T03:16:26;99356.44;;;6.78;65.67
78229;BME280;74448;49.082;9.152;2023-12-20T03:18:53;99356.72;;;6.73;65.50
78229;BME280;74448;49.082;9.152;2023-12-20T03:21:20;99349.00;;;6.70;66.05
78229;BME280;74448;49.082;9.152;2023-12-20T03:23:46;99358.56;;;6.71;66.36
78229;BME280;74448;49.082;9.152;2023-12-20T03:26:13;99362.03;;;6.71;65.49
78229;BME280;74448;49.082;9.152;2023-12-20T03:28:40;99355.19;;;6.69;65.65
78229;BME280;74448;49.082;9.152;2023-12-20T03:31:07;99358.56;;;6.71;66.02
78229;BME280;74448;49.082;9.152;2023-12-20T03:33:33;99358.06;;;6.64;65.56
78229;BME280;74448;49.082;9.152;2023-12-20T03:36:00;99351.97;;;6.64;66.37
78229;BME280;74448;49.082;9.152;2023-12-20T03:38:27;99340.19;;;6.57;66.11
78229;BME280;74448;49.082;9.152;2023-12-20T03:40:53;99359.69;;;6.67;65.85
78229;BME280;74448;49.082;9.152;2023-12-20T03:43:20;99364.94;;;6.67;65.53
78229;BME280;74448;49.082;9.152;2023-12-20T03:45:47;99367.75;;;6.64;65.40
78229;BME280;74448;49.082;9.152;2023-12-20T03:48:14;99361.81;;;6.60;65.92
78229;BME280;74448;49.082;9.152;2023-12-20T03:50:40;99371.31;;;6.63;65.28
78229;BME280;74448;49.082;9.152;2023-12-20T03:53:07;99369.63;;;6.62;66.15
78229;BME280;74448;49.082;9.152;2023-12-20T03:55:34;99373.38;;;6.58;65.70
78229;BME280;74448;49.082;9.152;2023-12-20T03:58:00;99359.47;;;6.56;66.53
78229;BME280;74448;49.082;9.152;2023-12-20T04:00:27;99361.34;;;6.54;66.03
78229;BME280;74448;49.082;9.152;2023-12-20T04:02:53;99362.88;;;6.58;65.97
78229;BME280;74448;49.082;9.152;2023-12-20T04:05:20;99355.00;;;6.58;65.57
78229;BME280;74448;49.082;9.152;2023-12-20T04:07:47;99355.16;;;6.55;65.85
78229;BME280;74448;49.082;9.152;2023-12-20T04:10:14;99350.84;;;6.54;66.43
78229;BME280;74448;49.082;9.152;2023-12-20T04:12:41;99361.19;;;6.57;65.84
78229;BME280;74448;49.082;9.152;2023-12-20T04:15:07;99384.88;;;6.55;65.57
78229;BME280;74448;49.082;9.152;2023-12-20T04:17:36;99380.75;;;6.51;65.50
78229;BME280;74448;49.082;9.152;2023-12-20T04:20:03;99358.91;;;6.51;65.51
78229;BME280;74448;49.082;9.152;2023-12-20T04:22:31;99379.06;;;6.50;65.46
78229;BME280;74448;49.082;9.152;2023-12-20T04:24:57;99361.81;;;6.46;66.17
78229;BME280;74448;49.082;9.152;2023-12-20T04:27:24;99380.09;;;6.47;65.54
78229;BME280;74448;49.082;9.152;2023-12-20T04:29:50;99385.44;;;6.46;65.17
78229;BME280;74448;49.082;9.152;2023-12-20T04:32:17;99386.28;;;6.46;65.75
78229;BME280;74448;49.082;9.152;2023-12-20T04:34:43;99386.38;;;6.45;65.98
78229;BME280;74448;49.082;9.152;2023-12-20T04:37:10;99387.22;;;6.45;65.51
78229;BME280;74448;49.082;9.152;2023-12-20T04:39:37;99389.06;;;6.43;65.74
78229;BME280;74448;49.082;9.152;2023-12-20T04:42:03;99374.66;;;6.36;65.00
78229;BME280;74448;49.082;9.152;2023-12-20T04:44:30;99381.03;;;6.46;65.45
78229;BME280;74448;49.082;9.152;2023-12-20T04:46:57;99383.81;;;6.43;65.34
78229;BME280;74448;49.082;9.152;2023-12-20T04:49:23;99381.41;;;6.40;65.41
78229;BME280;74448;49.082;9.152;2023-12-20T04:51:50;99370.50;;;6.32;65.62
78229;BME280;74448;49.082;9.152;2023-12-20T04:54:17;99384.03;;;6.40;65.24
78229;BME280;74448;49.082;9.152;2023-12-20T04:56:43;99386.66;;;6.40;65.60
78229;BME280;74448;49.082;9.152;2023-12-20T04:59:10;99379.06;;;6.36;65.65
78229;BME280;74448;49.082;9.152;2023-12-20T05:01:36;99388.78;;;6.34;64.74
78229;BME280;74448;49.082;9.152;2023-12-20T05:04:03;99402.75;;;6.34;65.31
78229;BME280;74448;49.082;9.152;2023-12-20T05:06:30;99398.34;;;6.35;65.60
78229;BME280;74448;49.082;9.152;2023-12-20T05:08:57;99399.19;;;6.35;65.88
78229;BME280;74448;49.082;9.152;2023-12-20T05:11:23;99405.47;;;6.33;66.29
78229;BME280;74448;49.082;9.152;2023-12-20T05:13:50;99411.56;;;6.33;65.55
78229;BME280;74448;49.082;9.152;2023-12-20T05:16:17;99411.66;;;6.32;65.57
78229;BME280;74448;49.082;9.152;2023-12-20T05:18:48;99416.06;;;6.31;65.79
78229;BME280;74448;49.082;9.152;2023-12-20T05:21:16;99407.44;;;6.29;64.96
78229;BME280;74448;49.082;9.152;2023-12-20T05:23:42;99428.41;;;6.29;65.82
78229;BME280;74448;49.082;9.152;2023-12-20T05:26:09;99431.22;;;6.26;65.97
78229;BME280;74448;49.082;9.152;2023-12-20T05:28:36;99430.94;;;6.31;65.34
78229;BME280;74448;49.082;9.152;2023-12-20T05:31:02;99437.97;;;6.30;65.51
78229;BME280;74448;49.082;9.152;2023-12-20T05:33:29;99435.56;;;6.27;65.49
78229;BME280;74448;49.082;9.152;2023-12-20T05:35:56;99446.78;;;6.29;65.57
78229;BME280;74448;49.082;9.152;2023-12-20T05:38:23;99450.38;;;6.28;65.72
78229;BME280;74448;49.082;9.152;2023-12-20T05:40:49;99434.38;;;6.17;65.93
78229;BME280;74448;49.082;9.152;2023-12-20T05:43:16;99456.78;;;6.22;64.94
78229;BME280;74448;49.082;9.152;2023-12-20T05:45:42;99458.41;;;6.25;65.78
78229;BME280;74448;49.082;9.152;2023-12-20T05:48:09;99460.09;;;6.26;65.80
78229;BME280;74448;49.082;9.152;2023-12-20T05:50:36;99475.84;;;6.26;65.35
78229;BME280;74448;49.082;9.152;2023-12-20T05:53:03;99471.69;;;6.22;66.16
78229;BME280;74448;49.082;9.152;2023-12-20T05:55:29;99477.63;;;6.26;65.31
78229;BME280;74448;49.082;9.152;2023-12-20T05:57:56;99482.03;;;6.25;64.87
78229;BME280;74448;49.082;9.152;2023-12-20T06:00:23;99478.81;;;6.20;65.75
78229;BME280;74448;49.082;9.152;2023-12-20T06:02:50;99475.63;;;6.15;65.69
78229;BME280;74448;49.082;9.152;2023-12-20T06:05:16;99489.31;;;6.20;65.46
78229;BME280;74448;49.082;9.152;2023-12-20T06:07:43;99492.88;;;6.19;65.33
78229;BME280;74448;49.082;9.152;2023-12-20T06:10:11;99492.69;;;6.22;65.79
78229;BME280;74448;49.082;9.152;2023-12-20T06:12:38;99485.66;;;6.22;65.38
78229;BME280;74448;49.082;9.152;2023-12-20T06:15:05;99476.47;;;6.15;65.57
78229;BME280;74448;49.082;9.152;2023-12-20T06:17:32;99480.88;;;6.15;65.49
78229;BME280;74448;49.082;9.152;2023-12-20T06:19:58;99476.34;;;6.17;65.53
78229;BME280;74448;49.082;9.152;2023-12-20T06:22:26;99487.88;;;6.14;64.96
78229;BME280;74448;49.082;9.152;2023-12-20T06:24:52;99493.03;;;6.16;65.37
78229;BME280;74448;49.082;9.152;2023-12-20T06:27:19;99493.78;;;6.18;65.73
78229;BME280;74448;49.082;9.152;2023-12-20T06:29:45;99503.69;;;6.13;65.40
78229;BME280;74448;49.082;9.152;2023-12-20T06:32:12;99492.28;;;6.14;64.96
78229;BME280;74448;49.082;9.152;2023-12-20T06:34:39;99501.75;;;6.16;65.60
78229;BME280;74448;49.082;9.152;2023-12-20T06:37:05;99494.06;;;6.13;65.32
78229;BME280;74448;49.082;9.152;2023-12-20T06:39:32;99499.41;;;6.12;65.30
78229;BME280;74448;49.082;9.152;2023-12-20T06:42:00;99498.63;;;6.10;65.84
78229;BME280;74448;49.082;9.152;2023-12-20T06:44:27;99507.25;;;6.12;65.30
78229;BME280;74448;49.082;9.152;2023-12-20T06:46:53;99511.75;;;6.10;65.38
78229;BME280;74448;49.082;9.152;2023-12-20T06:49:20;99521.13;;;6.14;65.22
78229;BME280;74448;49.082;9.152;2023-12-20T06:51:47;99519.53;;;6.11;65.44
78229;BME280;74448;49.082;9.152;2023-12-20T06:54:13;99522.06;;;6.13;65.60
78229;BME280;74448;49.082;9.152;2023-12-20T06:56:40;99529.94;;;6.13;65.23
78229;BME280;74448;49.082;9.152;2023-12-20T06:59:07;99524.00;;;6.09;65.31
78229;BME280;74448;49.082;9.152;2023-12-20T07:01:34;99554.50;;;6.12;65.27
78229;BME280;74448;49.082;9.152;2023-12-20T07:04:00;99543.31;;;6.08;65.74
78229;BME280;74448;49.082;9.152;2023-12-20T07:06:27;99549.41;;;6.09;65.86
78229;BME280;74448;49.082;9.152;2023-12-20T07:08:54;99552.88;;;6.09;65.99
78229;BME280;74448;49.082;9.152;2023-12-20T07:11:20;99553.91;;;6.07;66.20
78229;BME280;74448;49.082;9.152;2023-12-20T07:13:47;99565.25;;;6.07;65.34
78229;BME280;74448;49.082;9.152;2023-12-20T07:16:14;99548.91;;;6.02;65.56
78229;BME280;74448;49.082;9.152;2023-12-20T07:18:40;99547.13;;;6.03;65.40
78229;BME280;74448;49.082;9.152;2023-12-20T07:21:07;99561.69;;;6.08;65.28
78229;BME280;74448;49.082;9.152;2023-12-20T07:23:34;99573.97;;;6.08;65.94
78229;BME280;74448;49.082;9.152;2023-12-20T07:26:01;99552.63;;;5.98;65.63
78229;BME280;74448;49.082;9.152;2023-12-20T07:28:27;99573.13;;;6.07;65.26
78229;BME280;74448;49.082;9.152;2023-12-20T07:30:54;99548.38;;;5.95;65.61
78229;BME280;74448;49.082;9.152;2023-12-20T07:33:21;99567.34;;;6.01;66.06
78229;BME280;74448;49.082;9.152;2023-12-20T07:35:48;99581.00;;;6.07;65.13
78229;BME280;74448;49.082;9.152;2023-12-20T07:38:15;99576.00;;;6.03;65.44
78229;BME280;74448;49.082;9.152;2023-12-20T07:40:41;99582.16;;;6.02;65.61
78229;BME280;74448;49.082;9.152;2023-12-20T07:43:08;99582.16;;;6.02;66.08
78229;BME280;74448;49.082;9.152;2023-12-20T07:45:35;99587.50;;;6.00;65.42
78229;BME280;74448;49.082;9.152;2023-12-20T07:48:01;99576.47;;;5.93;65.67
78229;BME280;74448;49.082;9.152;2023-12-20T07:50:28;99590.03;;;6.02;65.16
78229;BME280;74448;49.082;9.152;2023-12-20T07:52:55;99603.94;;;6.04;65.31
78229;BME280;74448;49.082;9.152;2023-12-20T07:55:22;99601.47;;;6.01;65.59
78229;BME280;74448;49.082;9.152;2023-12-20T07:57:49;99600.72;;;5.98;65.76
78229;BME280;74448;49.082;9.152;2023-12-20T08:00:16;99586.97;;;5.93;65.00
78229;BME280;74448;49.082;9.152;2023-12-20T08:02:42;99610.13;;;6.03;64.91
78229;BME280;74448;49.082;9.152;2023-12-20T08:05:09;99596.22;;;6.01;64.81
78229;BME280;74448;49.082;9.152;2023-12-20T08:07:36;99603.25;;;6.00;65.52
78229;BME280;74448;49.082;9.152;2023-12-20T08:10:02;99593.75;;;5.97;65.36
78229;BME280;74448;49.082;9.152;2023-12-20T08:12:29;99607.72;;;5.98;65.31
78229;BME280;74448;49.082;9.152;2023-12-20T08:14:56;99613.81;;;5.98;65.31
78229;BME280;74448;49.082;9.152;2023-12-20T08:17:23;99607.94;;;5.93;65.44
78229;BME280;74448;49.082;9.152;2023-12-20T08:19:51;99613.97;;;5.95;65.95
78229;BME280;74448;49.082;9.152;2023-12-20T08:22:18;99607.09;;;5.93;66.07
78229;BME280;74448;49.082;9.152;2023-12-20T08:24:44;99601.91;;;5.91;65.75
78229;BME280;74448;49.082;9.152;2023-12-20T08:27:11;99597.91;;;5.84;65.85
78229;BME280;74448;49.082;9.152;2023-12-20T08:29:37;99601.00;;;5.92;65.62
78229;BME280;74448;49.082;9.152;2023-12-20T08:32:04;99606.25;;;5.92;64.96
78229;BME280;74448;49.082;9.152;2023-12-20T08:34:31;99605.47;;;5.90;65.50
78229;BME280;74448;49.082;9.152;2023-12-20T08:36:58;99625.31;;;5.96;65.24
78229;BME280;74448;49.082;9.152;2023-12-20T08:39:24;99598.09;;;5.81;65.24
78229;BME280;74448;49.082;9.152;2023-12-20T08:41:51;99621.16;;;5.92;64.77
78229;BME280;74448;49.082;9.152;2023-12-20T08:44:17;99635.13;;;5.92;65.26
78229;BME280;74448;49.082;9.152;2023-12-20T08:46:44;99626.53;;;5.89;65.38
78229;BME280;74448;49.082;9.152;2023-12-20T08:49:11;99618.75;;;5.87;65.90
78229;BME280;74448;49.082;9.152;2023-12-20T08:51:37;99623.69;;;5.93;65.14
78229;BME280;74448;49.082;9.152;2023-12-20T08:54:07;99607.41;;;5.87;65.79
78229;BME280;74448;49.082;9.152;2023-12-20T08:56:34;99615.19;;;5.88;65.49
78229;BME280;74448;49.082;9.152;2023-12-20T08:59:01;99609.19;;;5.86;65.21
78229;BME280;74448;49.082;9.152;2023-12-20T09:01:28;99611.81;;;5.86;65.42
78229;BME280;74448;49.082;9.152;2023-12-20T09:03:54;99612.66;;;5.87;65.95
78229;BME280;74448;49.082;9.152;2023-12-20T09:06:21;99613.50;;;5.87;65.48
78229;BME280;74448;49.082;9.152;2023-12-20T09:08:48;99616.03;;;5.89;65.72
78229;BME280;74448;49.082;9.152;2023-12-20T09:11:14;99616.22;;;5.86;65.12
78229;BME280;74448;49.082;9.152;2023-12-20T09:13:41;99616.88;;;5.89;66.21
78229;BME280;74448;49.082;9.152;2023-12-20T09:16:08;99600.88;;;5.78;65.38
78229;BME280;74448;49.082;9.152;2023-12-20T09:18:35;99616.22;;;5.86;65.33
78229;BME280;74448;49.082;9.152;2023-12-20T09:21:01;99601.31;;;5.86;65.27
78229;BME280;74448;49.082;9.152;2023-12-20T09:23:28;99610.88;;;5.87;65.68
78229;BME280;74448;49.082;9.152;2023-12-20T09:25:55;99607.41;;;5.87;65.04
78229;BME280;74448;49.082;9.152;2023-12-20T09:28:23;99609.25;;;5.85;66.03
78229;BME280;74448;49.082;9.152;2023-12-20T09:30:50;99619.69;;;5.86;65.89
78229;BME280;74448;49.082;9.152;2023-12-20T09:33:17;99623.16;;;5.87;65.53
78229;BME280;74448;49.082;9.152;2023-12-20T09:35:44;99612.13;;;5.80;65.97
78229;BME280;74448;49.082;9.152;2023-12-20T09:38:10;99606.97;;;5.79;66.18
78229;BME280;74448;49.082;9.152;2023-12-20T09:40:41;99603.81;;;5.72;65.22
78229;BME280;74448;49.082;9.152;2023-12-20T09:43:14;99618.91;;;5.84;65.69
78229;BME280;74448;49.082;9.152;2023-12-20T09:45:45;99593.31;;;5.72;65.77
78229;BME280;74448;49.082;9.152;2023-12-20T09:48:12;99612.13;;;5.80;65.33
78229;BME280;74448;49.082;9.152;2023-12-20T09:50:41;99626.03;;;5.82;65.49
78229;BME280;74448;49.082;9.152;2023-12-20T09:53:15;99623.41;;;5.82;65.18
78229;BME280;74448;49.082;9.152;2023-12-20T09:55:42;99626.03;;;5.82;65.53
78229;BME280;74448;49.082;9.152;2023-12-20T09:58:08;99637.25;;;5.84;66.16
78229;BME280;74448;49.082;9.152;2023-12-20T10:00:35;99619.09;;;5.81;65.05
78229;BME280;74448;49.082;9.152;2023-12-20T10:03:03;99636.41;;;5.84;65.59
78229;BME280;74448;49.082;9.152;2023-12-20T10:05:31;99633.78;;;5.84;65.69
78229;BME280;74448;49.082;9.152;2023-12-20T10:08:00;99625.19;;;5.82;65.79
78229;BME280;74448;49.082;9.152;2023-12-20T10:10:28;99622.63;;;5.80;65.17
78229;BME280;74448;49.082;9.152;2023-12-20T10:13:12;99628.63;;;5.82;65.82
78229;BME280;74448;49.082;9.152;2023-12-20T10:15:39;99624.34;;;5.81;65.94
78229;BME280;74448;49.082;9.152;2023-12-20T10:18:08;99627.72;;;5.83;65.51
78229;BME280;74448;49.082;9.152;2023-12-20T10:20:35;99625.94;;;5.84;65.77
78229;BME280;74448;49.082;9.152;2023-12-20T10:23:02;99622.47;;;5.83;65.20
78229;BME280;74448;49.082;9.152;2023-12-20T10:25:29;99631.13;;;5.85;66.00
78229;BME280;74448;49.082;9.152;2023-12-20T10:28:10;99626.78;;;5.84;65.78
78229;BME280;74448;49.082;9.152;2023-12-20T10:30:39;99605.53;;;5.73;65.26
78229;BME280;74448;49.082;9.152;2023-12-20T10:33:07;99625.00;;;5.85;65.50
78229;BME280;74448;49.082;9.152;2023-12-20T10:35:38;99628.50;;;5.85;65.70
78229;BME280;74448;49.082;9.152;2023-12-20T10:38:11;99615.28;;;5.87;65.80
78229;BME280;74448;49.082;9.152;2023-12-20T10:40:38;99625.00;;;5.85;65.48
78229;BME280;74448;49.082;9.152;2023-12-20T10:43:05;99611.22;;;5.81;65.66
78229;BME280;74448;49.082;9.152;2023-12-20T10:45:32;99615.53;;;5.82;65.42
78229;BME280;74448;49.082;9.152;2023-12-20T10:47:58;99616.97;;;5.88;65.63
78229;BME280;74448;49.082;9.152;2023-12-20T10:50:27;99615.19;;;5.88;64.61
78229;BME280;74448;49.082;9.152;2023-12-20T10:52:55;99604.09;;;5.83;65.17
78229;BME280;74448;49.082;9.152;2023-12-20T10:55:26;99611.63;;;5.89;65.32
78229;BME280;74448;49.082;9.152;2023-12-20T10:58:09;99588.69;;;5.77;65.70
78229;BME280;74448;49.082;9.152;2023-12-20T11:00:40;99611.03;;;5.84;65.36
78229;BME280;74448;49.082;9.152;2023-12-20T11:03:11;99589.59;;;5.76;65.44
78229;BME280;74448;49.082;9.152;2023-12-20T11:09:24;99605.31;;;5.93;65.41
78229;BME280;74448;49.082;9.152;2023-12-20T11:14:29;99598.44;;;5.91;65.38
78229;BME280;74448;49.082;9.152;2023-12-20T11:17:10;99579.75;;;5.81;65.75
78229;BME280;74448;49.082;9.152;2023-12-20T11:22:20;99599.09;;;5.96;64.88
78229;BME280;74448;49.082;9.152;2023-12-20T11:24:48;99594.63;;;5.98;65.23
78229;BME280;74448;49.082;9.152;2023-12-20T11:27:16;99591.13;;;5.97;65.43
78229;BME280;74448;49.082;9.152;2023-12-20T11:29:51;99577.25;;;5.95;65.31
78229;BME280;74448;49.082;9.152;2023-12-20T11:34:51;99585.56;;;6.04;65.74
78229;BME280;74448;49.082;9.152;2023-12-20T11:37:20;99584.63;;;6.05;65.28
78229;BME280;74448;49.082;9.152;2023-12-20T11:40:06;99579.47;;;6.03;65.42
78229;BME280;74448;49.082;9.152;2023-12-20T11:42:43;99567.19;;;6.04;64.48
78229;BME280;74448;49.082;9.152;2023-12-20T11:45:11;99577.34;;;6.10;64.72
78229;BME280;74448;49.082;9.152;2023-12-20T11:47:46;99554.81;;;6.06;64.92
78229;BME280;74448;49.082;9.152;2023-12-20T11:50:14;99572.03;;;6.11;64.98
78229;BME280;74448;49.082;9.152;2023-12-20T11:52:41;99554.81;;;6.06;64.47
78229;BME280;74448;49.082;9.152;2023-12-20T11:55:07;99565.84;;;6.12;64.76
78229;BME280;74448;49.082;9.152;2023-12-20T11:57:34;99552.13;;;6.07;65.76
78229;BME280;74448;49.082;9.152;2023-12-20T12:00:05;99567.38;;;6.16;64.88
78229;BME280;74448;49.082;9.152;2023-12-20T12:02:32;99573.22;;;6.21;65.08
78229;BME280;74448;49.082;9.152;2023-12-20T12:05:02;99562.97;;;6.17;65.09
78229;BME280;74448;49.082;9.152;2023-12-20T12:07:32;99564.31;;;6.24;65.17
78229;BME280;74448;49.082;9.152;2023-12-20T12:09:59;99572.38;;;6.21;64.96
78229;BME280;74448;49.082;9.152;2023-12-20T12:12:25;99580.09;;;6.24;64.48
78229;BME280;74448;49.082;9.152;2023-12-20T12:14:54;99569.75;;;6.21;65.06
78229;BME280;74448;49.082;9.152;2023-12-20T12:17:23;99543.84;;;6.15;64.94
78229;BME280;74448;49.082;9.152;2023-12-20T12:19:50;99561.59;;;6.26;65.89
78229;BME280;74448;49.082;9.152;2023-12-20T12:22:16;99569.22;;;6.30;64.52
78229;BME280;74448;49.082;9.152;2023-12-20T12:24:45;99559.75;;;6.28;64.52
78229;BME280;74448;49.082;9.152;2023-12-20T12:27:13;99550.16;;;6.27;65.44
78229;BME280;74448;49.082;9.152;2023-12-20T12:29:40;99551.63;;;6.32;65.17
78229;BME280;74448;49.082;9.152;2023-12-20T12:32:07;99552.22;;;6.37;64.71
78229;BME280;74448;49.082;9.152;2023-12-20T12:34:35;99542.72;;;6.35;64.39
78229;BME280;74448;49.082;9.152;2023-12-20T12:37:06;99546.28;;;6.34;65.74
78229;BME280;74448;49.082;9.152;2023-12-20T12:39:34;99549.75;;;6.34;65.33
78229;BME280;74448;49.082;9.152;2023-12-20T12:42:00;99565.19;;;6.40;65.40
78229;BME280;74448;49.082;9.152;2023-12-20T12:44:27;99560.94;;;6.38;64.47
78229;BME280;74448;49.082;9.152;2023-12-20T12:46:53;99572.13;;;6.41;65.29
78229;BME280;74448;49.082;9.152;2023-12-20T12:49:20;99571.00;;;6.45;64.48
78229;BME280;74448;49.082;9.152;2023-12-20T12:51:48;99555.84;;;6.51;64.87
78229;BME280;74448;49.082;9.152;2023-12-20T12:54:15;99571.69;;;6.49;64.77
78229;BME280;74448;49.082;9.152;2023-12-20T12:56:43;99559.41;;;6.49;65.21
78229;BME280;74448;49.082;9.152;2023-12-20T12:59:10;99552.91;;;6.41;65.21
78229;BME280;74448;49.082;9.152;2023-12-20T13:01:37;99567.28;;;6.49;64.88
78229;BME280;74448;49.082;9.152;2023-12-20T13:04:05;99557.03;;;6.45;64.89
78229;BME280;74448;49.082;9.152;2023-12-20T13:06:37;99563.13;;;6.45;65.83
78229;BME280;74448;49.082;9.152;2023-12-20T13:09:04;99568.03;;;6.52;65.04
78229;BME280;74448;49.082;9.152;2023-12-20T13:11:31;99568.03;;;6.52;65.35
78229;BME280;74448;49.082;9.152;2023-12-20T13:13:57;99564.97;;;6.59;64.66
78229;BME280;74448;49.082;9.152;2023-12-20T13:16:24;99558.88;;;6.59;65.17
78229;BME280;74448;49.082;9.152;2023-12-20T13:18:51;99580.56;;;6.62;64.30
78229;BME280;74448;49.082;9.152;2023-12-20T13:21:17;99576.69;;;6.69;64.63